Time;durP1;ratioP1;P1;durP2;ratioP2;P2;SDS_P1;SDS_P2;PMS_P1;PMS_P2;Temp;Humidity;BMP_temperature;BMP_pressure;BME280_temperature;BME280_humidity;BME280_pressure;Samples;Min_cycle;Max_cycle;Signal;HPM_P1;HPM_P2
2022/05/10 00:00:39;;;;;;;5.17;3.40;;;13.40;1.00;;;13.44;49.81;101834.50;4931956;29;20439;-73
2022/05/10 00:03:09;;;;;;;3.97;3.03;;;13.40;1.00;;;13.40;49.92;101833.22;4929759;29;20399;-72
2022/05/10 00:05:43;;;;;;;10.00;3.90;;;13.50;1.00;;;13.51;49.74;101833.72;4925518;29;20510;-73
2022/05/10 00:08:17;;;;;;;5.27;3.40;;;13.50;1.00;;;13.40;49.77;101827.78;4946954;28;20559;-72
2022/05/10 00:10:47;;;;;;;4.97;3.43;;;13.50;1.00;;;13.33;50.25;101826.88;4914950;29;20576;-72
2022/05/10 00:13:17;;;;;;;6.87;2.40;;;13.40;1.00;;;13.36;49.88;101829.19;4928110;29;20507;-71
2022/05/10 00:15:49;;;;;;;4.73;3.70;;;13.40;1.00;;;13.32;50.23;101836.06;4929235;29;20684;-73
2022/05/10 00:18:29;;;;;;;8.27;4.20;;;13.40;1.00;;;13.34;50.35;101828.59;4929999;29;20664;-72
2022/05/10 00:20:59;;;;;;;4.77;3.70;;;13.30;1.00;;;13.38;50.27;101829.84;4929555;29;20474;-71
2022/05/10 00:23:27;;;;;;;8.30;3.83;;;13.40;1.00;;;13.28;50.28;101826.63;4932462;29;20436;-73
2022/05/10 00:25:56;;;;;;;6.90;3.57;;;13.30;1.00;;;13.07;50.78;101826.63;4933353;29;20444;-73
2022/05/10 00:28:26;;;;;;;4.40;3.50;;;13.20;1.00;;;13.05;50.91;101826.00;4931242;29;20950;-74
2022/05/10 00:30:57;;;;;;;6.80;3.60;;;13.20;1.00;;;13.23;50.55;101822.84;4929736;29;20496;-72
2022/05/10 00:33:29;;;;;;;4.40;3.13;;;13.20;1.00;;;13.05;51.06;101817.84;4945554;28;20540;-72
2022/05/10 00:35:59;;;;;;;8.60;4.30;;;13.20;1.00;;;12.88;51.31;101821.84;4931478;29;20952;-72
2022/05/10 00:38:34;;;;;;;7.10;4.27;;;13.00;1.00;;;12.93;51.52;101809.38;4926846;29;20448;-72
2022/05/10 00:41:10;;;;;;;9.20;2.80;;;13.00;1.00;;;12.86;51.66;101802.22;4926675;29;20934;-70
2022/05/10 00:43:46;;;;;;;8.20;4.50;;;13.00;1.00;;;12.77;51.87;101795.25;4928608;29;20633;-74
2022/05/10 00:46:24;;;;;;;3.90;3.47;;;12.90;1.00;;;12.67;52.34;101802.88;4933061;28;20440;-75
2022/05/10 00:49:03;;;;;;;5.07;3.23;;;12.80;1.00;;;12.94;51.60;101796.63;4923693;29;20456;-72
2022/05/10 00:51:43;;;;;;;4.20;3.13;;;12.80;1.00;;;12.74;51.62;101782.88;4932831;29;20518;-71
2022/05/10 00:54:30;;;;;;;6.80;3.97;;;12.80;1.00;;;12.64;52.56;101785.06;4932361;29;20477;-71
2022/05/10 00:57:14;;;;;;;3.43;2.77;;;12.80;1.00;;;12.61;52.30;101783.59;4928440;29;20461;-71
2022/05/10 00:59:57;;;;;;;5.60;3.10;;;12.70;1.00;;;12.69;52.44;101773.63;4929171;29;20501;-71
2022/05/10 01:02:43;;;;;;;4.47;3.60;;;12.70;1.00;;;12.77;51.83;101771.63;4935708;29;20442;-71
2022/05/10 01:05:27;;;;;;;8.37;4.07;;;12.80;1.00;;;12.74;52.11;101777.44;4936782;29;20467;-73
2022/05/10 01:08:07;;;;;;;7.60;4.27;;;12.80;1.00;;;12.53;53.09;101775.59;4947065;29;20520;-71
2022/05/10 01:10:45;;;;;;;6.67;3.53;;;12.70;1.00;;;12.43;53.10;101772.34;4935631;29;20487;-72
2022/05/10 01:13:28;;;;;;;4.43;3.50;;;12.60;1.00;;;12.28;53.49;101770.72;4970312;28;20493;-71
2022/05/10 01:16:07;;;;;;;4.33;3.90;;;12.50;1.00;;;12.31;53.65;101771.16;4938840;28;20456;-72
2022/05/10 01:18:40;;;;;;;4.90;3.73;;;12.40;1.00;;;12.47;53.11;101768.22;4935787;29;20448;-72
2022/05/10 01:21:52;;;;;;;5.57;4.13;;;12.50;1.00;;;12.38;53.35;101761.22;4936270;29;20483;-71
2022/05/10 01:25:01;;;;;;;7.10;3.97;;;12.40;1.00;;;12.46;53.28;101762.97;4932490;29;20457;-72
2022/05/10 01:27:51;;;;;;;6.47;3.70;;;12.40;1.00;;;12.34;53.44;101754.50;4932872;29;20495;-71
2022/05/10 01:30:28;;;;;;;6.30;3.77;;;12.40;1.00;;;12.48;53.01;101750.91;4944907;28;20488;-71
2022/05/10 01:33:30;;;;;;;5.97;3.80;;;12.50;1.00;;;12.28;53.65;101754.44;4933150;29;20579;-72
2022/05/10 01:36:19;;;;;;;5.63;3.70;;;12.40;1.00;;;12.30;53.53;101747.75;4930896;29;20475;-71
2022/05/10 01:39:00;;;;;;;4.90;3.87;;;12.40;1.00;;;12.48;53.00;101739.19;4936668;29;20895;-72
2022/05/10 01:41:47;;;;;;;6.20;3.70;;;12.40;1.00;;;12.38;53.25;101728.66;4935374;29;20562;-74
2022/05/10 01:44:26;;;;;;;4.60;3.40;;;12.40;1.00;;;12.35;53.50;101734.47;4936795;29;20454;-71
2022/05/10 01:47:06;;;;;;;3.70;3.20;;;12.40;1.00;;;12.37;53.31;101734.28;4935143;29;20972;-74
2022/05/10 01:49:44;;;;;;;4.10;3.20;;;12.30;1.00;;;12.32;53.27;101729.44;4935719;29;20491;-71
2022/05/10 01:52:21;;;;;;;5.10;3.47;;;12.30;1.00;;;12.12;53.88;101736.50;4935825;29;20527;-71
2022/05/10 01:55:07;;;;;;;5.67;3.87;;;12.30;1.00;;;12.07;54.30;101736.25;4929372;29;20778;-71
2022/05/10 01:57:39;;;;;;;5.47;3.50;;;12.20;1.00;;;11.99;54.44;101741.78;4923130;29;20810;-72
2022/05/10 02:00:15;;;;;;;10.10;3.50;;;12.10;1.00;;;12.06;54.05;101734.56;4937719;29;20533;-72
2022/05/10 02:02:54;;;;;;;3.93;3.50;;;12.10;1.00;;;11.99;54.37;101739.94;4935384;29;20409;-72
2022/05/10 02:05:32;;;;;;;4.97;3.87;;;12.10;1.00;;;11.86;54.73;101744.34;4940095;29;20443;-72
2022/05/10 02:08:11;;;;;;;6.23;3.90;;;12.00;1.00;;;11.91;54.49;101741.91;4934165;29;20455;-71
2022/05/10 02:10:49;;;;;;;5.10;3.87;;;11.90;1.00;;;12.02;54.08;101738.69;4930982;29;20517;-72
2022/05/10 02:13:26;;;;;;;9.17;4.67;;;12.00;1.00;;;11.85;54.47;101737.25;4929231;29;20415;-73
2022/05/10 02:16:01;;;;;;;4.50;3.70;;;12.00;1.00;;;11.76;55.12;101733.81;4931291;29;20453;-70
2022/05/10 02:18:42;;;;;;;5.97;4.17;;;11.90;1.00;;;11.87;54.53;101727.88;4926750;29;20460;-69
2022/05/10 02:21:18;;;;;;;3.70;3.40;;;11.90;1.00;;;11.77;55.02;101720.03;4947985;29;20511;-72
2022/05/10 02:23:58;;;;;;;6.57;3.87;;;11.90;1.00;;;11.76;54.82;101723.78;4935212;29;20537;-72
2022/05/10 02:26:36;;;;;;;6.43;3.90;;;11.90;1.00;;;11.91;54.52;101706.66;4923816;29;20453;-72
2022/05/10 02:29:16;;;;;;;4.47;3.57;;;11.90;1.00;;;11.65;55.32;101710.69;4930884;29;20468;-73
2022/05/10 02:34:45;;;;;;;5.60;3.97;;;11.80;1.00;;;11.55;55.64;101712.00;4935521;29;20476;-72
2022/05/10 02:37:14;;;;;;;4.60;3.13;;;11.70;1.00;;;11.66;55.20;101712.38;4933959;29;20475;-73
2022/05/10 02:39:44;;;;;;;5.60;3.67;;;11.70;1.00;;;11.66;55.13;101714.25;4946232;28;20441;-71
2022/05/10 02:42:19;;;;;;;4.10;3.70;;;11.70;1.00;;;11.69;54.96;101705.72;4950035;28;20519;-71
2022/05/10 02:44:50;;;;;;;5.23;3.60;;;11.70;1.00;;;11.82;54.51;101708.63;4929218;29;21072;-72
2022/05/10 02:47:31;;;;;;;5.43;3.70;;;11.80;1.00;;;11.64;54.93;101703.59;4919012;29;20442;-71
2022/05/10 02:50:03;;;;;;;4.40;3.90;;;11.70;1.00;;;11.70;54.78;101707.41;4930103;29;20453;-73
2022/05/10 02:52:32;;;;;;;9.13;4.60;;;11.70;1.00;;;11.73;54.77;101691.63;4933779;29;20437;-71
2022/05/10 02:55:13;;;;;;;7.27;3.10;;;11.80;1.00;;;11.73;54.72;101691.63;4935296;29;20520;-70
2022/05/10 02:57:45;;;;;;;5.50;3.87;;;11.80;1.00;;;11.61;55.01;101693.13;4935482;29;20448;-70
2022/05/10 03:00:17;;;;;;;6.03;4.57;;;11.70;1.00;;;11.68;54.67;101687.78;4933844;29;20480;-72
2022/05/10 03:02:51;;;;;;;4.73;3.30;;;11.70;1.00;;;11.55;55.19;101685.75;4935090;29;20934;-71
2022/05/10 03:05:22;;;;;;;5.07;4.20;;;11.70;1.00;;;11.63;55.25;101690.22;4919373;29;20928;-70
2022/05/10 03:07:53;;;;;;;4.10;3.70;;;11.60;1.00;;;11.42;55.58;101685.59;4935099;29;20424;-70
2022/05/10 03:10:22;;;;;;;7.00;3.10;;;11.60;1.00;;;11.54;55.57;101686.78;4933139;29;20495;-71
2022/05/10 03:12:51;;;;;;;11.73;4.20;;;11.60;1.00;;;11.49;55.54;101686.50;4924179;29;20433;-72
2022/05/10 03:15:20;;;;;;;10.20;4.10;;;11.50;1.00;;;11.45;55.65;101682.50;4929809;29;20449;-72
2022/05/10 03:17:49;;;;;;;6.60;4.53;;;11.50;1.00;;;11.48;55.36;101686.69;4949243;29;20469;-71
2022/05/10 03:20:18;;;;;;;7.80;4.63;;;11.50;1.00;;;11.58;54.99;101681.81;4943391;28;20480;-70
2022/05/10 03:22:52;;;;;;;4.97;3.37;;;11.60;1.00;;;11.53;55.02;101679.66;4916909;29;20481;-71
2022/05/10 03:25:23;;;;;;;7.63;3.23;;;11.50;1.00;;;11.65;54.48;101678.16;4934861;29;20444;-70
2022/05/10 03:27:52;;;;;;;6.60;4.50;;;11.60;1.00;;;11.67;54.43;101681.50;4934908;29;20437;-74
2022/05/10 03:30:21;;;;;;;6.80;4.73;;;11.60;1.00;;;11.64;54.50;101676.47;4929975;29;20525;-72
2022/05/10 03:32:51;;;;;;;5.43;3.83;;;11.60;1.00;;;11.69;54.69;101674.03;4925229;29;20476;-72
2022/05/10 03:35:20;;;;;;;6.40;4.20;;;11.70;1.00;;;11.79;54.16;101678.34;4923282;29;20433;-72
2022/05/10 03:37:51;;;;;;;3.80;3.33;;;11.70;1.00;;;11.96;53.58;101672.47;4918858;29;20442;-71
2022/05/10 03:40:20;;;;;;;5.70;4.20;;;11.80;1.00;;;12.17;53.15;101675.22;4933912;29;20475;-71
2022/05/10 03:42:54;;;;;;;6.20;4.10;;;11.90;1.00;;;12.45;52.32;101675.25;4932978;29;20488;-72
2022/05/10 03:45:25;;;;;;;4.70;3.80;;;12.00;1.00;;;12.78;51.33;101669.28;4930244;29;20908;-72
2022/05/10 03:47:55;;;;;;;5.70;4.47;;;12.20;1.00;;;12.75;51.69;101659.63;4932557;29;20464;-73
2022/05/10 03:50:26;;;;;;;6.17;3.80;;;12.30;1.00;;;12.85;51.46;101664.72;4932971;29;20995;-71
2022/05/10 03:52:57;;;;;;;10.07;4.83;;;12.30;1.00;;;13.69;49.62;101668.13;4929125;29;20477;-71
2022/05/10 03:55:29;;;;;;;7.70;4.30;;;12.60;1.00;;;14.60;47.42;101661.19;4919445;29;20445;-71
2022/05/10 03:57:58;;;;;;;6.17;4.20;;;13.10;1.00;;;15.28;45.75;101658.97;4934671;29;20488;-71
2022/05/10 04:00:29;;;;;;;5.93;4.20;;;13.60;1.00;;;15.86;45.17;101660.63;4927285;29;20472;-74
2022/05/10 04:03:00;;;;;;;5.93;4.10;;;14.00;1.00;;;16.42;43.77;101662.56;4937993;29;20450;-70
2022/05/10 04:05:29;;;;;;;8.00;4.83;;;14.30;1.00;;;17.05;41.99;101663.28;4926400;29;20467;-74
2022/05/10 04:08:00;;;;;;;5.77;4.27;;;14.80;1.00;;;17.35;41.32;101652.44;4929548;29;20460;-72
2022/05/10 04:10:29;;;;;;;5.30;4.23;;;15.00;1.00;;;17.63;40.63;101652.72;4914916;29;20453;-72
2022/05/10 04:12:58;;;;;;;5.30;3.63;;;15.40;1.00;;;18.02;40.15;101654.09;4932743;29;20532;-72
2022/05/10 04:15:28;;;;;;;6.13;4.50;;;15.60;1.00;;;18.07;39.83;101653.38;4932321;29;20452;-70
2022/05/10 04:17:59;;;;;;;5.90;4.97;;;15.90;1.00;;;17.79;40.06;101654.00;4930491;29;20441;-70
2022/05/10 04:20:32;;;;;;;4.60;4.20;;;15.70;1.00;;;17.61;40.69;101645.84;4945354;29;20908;-72
2022/05/10 04:23:06;;;;;;;8.83;5.23;;;15.70;1.00;;;17.79;40.34;101648.53;4925168;29;20433;-71
2022/05/10 04:25:36;;;;;;;16.80;9.40;;;15.70;1.00;;;17.85;40.30;101649.50;4929400;29;20928;-70
2022/05/10 04:28:06;;;;;;;9.80;5.70;;;15.80;1.00;;;17.88;40.25;101640.81;4932678;29;20456;-71
2022/05/10 04:30:39;;;;;;;6.90;5.13;;;15.80;1.00;;;18.25;40.29;101642.34;4918311;29;20481;-71
2022/05/10 04:33:10;;;;;;;7.70;4.00;;;15.60;1.00;;;18.26;39.46;101641.28;4945875;28;20556;-73
2022/05/10 04:35:41;;;;;;;5.03;4.33;;;16.00;1.00;;;18.75;38.66;101639.25;4946107;28;20432;-71
2022/05/10 04:38:14;;;;;;;5.10;4.60;;;16.30;1.00;;;19.38;37.82;101631.91;4933318;29;21080;-71
2022/05/10 04:43:33;;;;;;;6.83;5.00;;;16.70;1.00;;;19.83;37.04;101628.44;4929354;29;20605;-72
2022/05/10 04:46:02;;;;;;;7.20;4.50;;;17.20;1.00;;;19.76;37.18;101623.06;4921401;29;20900;-73
2022/05/10 04:48:33;;;;;;;7.43;5.27;;;17.30;1.00;;;20.19;36.62;101617.00;4933523;29;20606;-72
2022/05/10 04:51:03;;;;;;;5.07;4.57;;;17.20;1.00;;;21.03;35.54;101627.97;4931909;29;20434;-71
2022/05/10 04:53:34;;;;;;;6.77;4.43;;;17.50;1.00;;;20.77;35.57;101624.00;4932718;29;20464;-72
2022/05/10 04:56:04;;;;;;;12.03;5.30;;;17.70;1.00;;;21.22;34.65;101632.97;4917184;29;20431;-71
2022/05/10 04:58:34;;;;;;;9.50;4.10;;;18.20;1.00;;;19.58;36.95;101636.16;4930223;29;20565;-71
2022/05/10 05:01:07;;;;;;;7.10;4.43;;;17.70;1.00;;;20.48;36.05;101641.72;4912470;29;20452;-72
2022/05/10 05:03:37;;;;;;;6.23;4.83;;;18.00;1.00;;;20.89;35.29;101643.19;4932236;29;20415;-73
2022/05/10 05:06:06;;;;;;;7.60;5.20;;;17.80;1.00;;;22.10;33.88;101628.22;4930592;29;20440;-71
2022/05/10 05:08:37;;;;;;;9.47;5.00;;;18.20;1.00;;;22.15;34.25;101636.53;4932820;29;20530;-73
2022/05/10 05:11:06;;;;;;;12.07;5.20;;;18.80;1.00;;;22.39;32.66;101634.28;4928364;29;20436;-71
2022/05/10 05:13:35;;;;;;;6.43;4.43;;;19.30;1.00;;;22.55;32.54;101625.03;4927436;29;20516;-73
2022/05/10 05:16:06;;;;;;;8.30;4.70;;;19.20;1.00;;;22.45;32.83;101636.81;4931162;29;20526;-72
2022/05/10 05:18:35;;;;;;;6.30;4.53;;;20.00;1.00;;;22.50;32.85;101630.50;4930516;29;20955;-73
2022/05/10 05:21:05;;;;;;;6.53;3.93;;;19.60;1.00;;;22.00;33.72;101628.13;4928796;28;20477;-72
2022/05/10 05:23:38;;;;;;;6.03;4.60;;;19.30;1.00;;;20.00;36.80;101632.03;4930562;29;20655;-72
2022/05/10 05:26:07;;;;;;;6.20;4.90;;;18.20;1.00;;;18.49;39.19;101616.66;4926852;29;20459;-71
2022/05/10 05:28:36;;;;;;;5.30;4.40;;;17.70;1.00;;;17.61;41.19;101619.31;4932339;29;20521;-72
2022/05/10 05:31:08;;;;;;;6.23;4.87;;;17.20;1.00;;;17.11;42.52;101623.25;4931283;29;20472;-73
2022/05/10 05:33:39;;;;;;;10.20;4.10;;;16.80;1.00;;;16.80;43.66;101622.31;4953707;23;20503;-68
2022/05/10 05:36:08;;;;;;;4.90;4.30;;;16.40;1.00;;;16.66;43.44;101612.56;4942403;28;20519;-71
2022/05/10 05:38:43;;;;;;;7.97;4.80;;;16.20;1.00;;;16.53;43.81;101618.97;4940483;29;20455;-67
2022/05/10 05:41:11;;;;;;;5.63;4.63;;;16.10;1.00;;;16.67;43.87;101610.69;4940399;29;20962;-68
2022/05/10 05:43:40;;;;;;;5.07;4.57;;;16.10;1.00;;;16.48;44.05;101617.97;4932720;29;20933;-70
2022/05/10 05:46:09;;;;;;;6.60;5.47;;;16.10;1.00;;;16.48;44.38;101615.22;4949613;23;20419;-67
2022/05/10 05:48:39;;;;;;;6.70;4.80;;;16.10;1.00;;;16.67;44.91;101616.97;4911879;29;20461;-67
2022/05/10 05:51:08;;;;;;;9.73;5.10;;;16.20;1.00;;;16.80;44.38;101614.09;4917625;29;20466;-68
2022/05/10 05:53:37;;;;;;;5.80;5.03;;;16.20;1.00;;;16.94;43.67;101610.16;4917240;29;20472;-69
2022/05/10 05:56:10;;;;;;;6.63;4.50;;;16.40;1.00;;;16.94;44.34;101612.91;4912648;29;20441;-69
2022/05/10 05:58:40;;;;;;;12.00;5.00;;;16.40;1.00;;;16.90;43.94;101614.44;4908137;29;20453;-69
2022/05/10 06:01:15;;;;;;;4.70;4.03;;;16.40;1.00;;;17.04;44.20;101617.84;4919047;29;20856;-69
2022/05/10 06:03:44;;;;;;;9.93;4.83;;;16.40;1.00;;;17.18;44.33;101615.81;4916481;29;20415;-69
2022/05/10 06:06:13;;;;;;;8.57;5.63;;;16.50;1.00;;;17.53;43.24;101611.34;4906994;29;20541;-70
2022/05/10 06:08:45;;;;;;;5.93;4.90;;;16.80;1.00;;;17.77;42.84;101613.16;4913172;29;20429;-70
2022/05/10 06:11:16;;;;;;;9.17;5.77;;;17.00;1.00;;;17.89;42.25;101609.63;4922694;29;20432;-69
2022/05/10 06:13:45;;;;;;;8.07;5.63;;;17.30;1.00;;;17.90;43.05;101614.91;4923139;29;20473;-69
2022/05/10 06:16:23;;;;;;;9.17;5.03;;;17.30;1.00;;;17.88;42.51;101613.44;4914545;29;20450;-69
2022/05/10 06:18:55;;;;;;;9.63;5.03;;;17.40;1.00;;;18.16;42.31;101610.91;4918023;29;20478;-69
2022/05/10 06:21:24;;;;;;;8.20;5.70;;;17.50;1.00;;;18.30;42.42;101606.88;4912924;29;20511;-70
2022/05/10 06:23:53;;;;;;;8.03;5.33;;;17.70;1.00;;;18.30;42.54;101606.88;4913965;29;20745;-70
2022/05/10 06:26:23;;;;;;;7.47;4.87;;;17.60;1.00;;;18.24;42.69;101605.09;4927143;29;20481;-69
2022/05/10 06:28:52;;;;;;;5.80;5.17;;;17.70;1.00;;;18.25;42.42;101604.00;4910426;29;20453;-67
2022/05/10 06:31:22;;;;;;;6.37;4.90;;;17.60;1.00;;;18.31;42.54;101605.81;4909966;29;20443;-69
2022/05/10 06:33:54;;;;;;;6.33;3.70;;;17.80;1.00;;;18.63;41.30;101598.13;4908920;29;20447;-69
2022/05/10 06:36:23;;;;;;;5.87;4.50;;;18.10;1.00;;;18.68;41.96;101601.00;4910523;29;20464;-69
2022/05/10 06:38:52;;;;;;;10.87;6.83;;;18.10;1.00;;;19.04;41.48;101597.13;4911325;29;20452;-68
2022/05/10 06:41:22;;;;;;;5.87;4.40;;;18.40;1.00;;;19.29;40.75;101594.09;4908278;29;20413;-68
2022/05/10 06:43:52;;;;;;;5.50;4.57;;;18.60;1.00;;;19.41;40.79;101592.16;4905309;29;20421;-68
2022/05/10 06:46:29;;;;;;;5.13;4.33;;;18.80;1.00;;;18.76;41.50;101588.81;4923000;29;20977;-68
2022/05/10 06:49:05;;;;;;;6.80;4.20;;;18.50;1.00;;;18.59;42.25;101578.56;4911506;29;20448;-68
2022/05/10 06:51:34;;;;;;;6.07;4.73;;;18.30;1.00;;;18.70;41.96;101579.63;4908393;29;20456;-69
2022/05/10 06:54:03;;;;;;;8.23;4.57;;;18.30;1.00;;;18.90;41.64;101582.00;4906325;29;20470;-68
2022/05/10 06:56:34;;;;;;;13.83;5.23;;;18.40;1.00;;;18.96;42.10;101570.09;4905593;29;20838;-68
2022/05/10 06:59:03;;;;;;;6.50;5.10;;;18.50;1.00;;;18.88;41.77;101571.28;4912914;29;20427;-68
2022/05/10 07:01:32;;;;;;;11.70;5.00;;;18.50;1.00;;;18.82;42.60;101571.41;4908221;29;20454;-71
2022/05/10 07:04:02;;;;;;;6.10;4.80;;;18.40;1.00;;;19.09;42.37;101569.81;4914042;29;20444;-69
2022/05/10 07:06:31;;;;;;;7.10;3.87;;;18.60;1.00;;;19.15;41.72;101568.84;4914022;29;20944;-69
2022/05/10 07:09:00;;;;;;;6.83;4.70;;;18.70;1.00;;;19.29;41.64;101564.75;4916678;29;20473;-70
2022/05/10 07:11:30;;;;;;;4.77;4.27;;;18.90;1.00;;;19.64;41.18;101561.06;4914747;29;20499;-68
2022/05/10 07:14:00;;;;;;;6.77;4.73;;;19.10;1.00;;;19.87;40.62;101559.03;4899337;29;20530;-69
2022/05/10 07:16:30;;;;;;;7.57;4.00;;;19.40;1.00;;;20.08;40.48;101560.22;4910773;29;20932;-68
2022/05/10 07:18:59;;;;;;;7.33;4.63;;;19.50;1.00;;;20.39;40.04;101561.56;4918079;29;20408;-68
2022/05/10 07:21:28;;;;;;;9.37;3.97;;;19.80;1.00;;;20.65;39.14;101555.38;4914553;29;20456;-68
2022/05/10 07:23:57;;;;;;;6.30;4.63;;;20.00;1.00;;;20.89;39.19;101555.97;4906745;29;20433;-68
2022/05/10 07:26:26;;;;;;;6.20;4.67;;;20.30;1.00;;;20.98;39.16;101559.13;4915756;29;20446;-68
2022/05/10 07:28:55;;;;;;;11.30;4.83;;;20.50;1.00;;;20.89;39.10;101558.72;4916291;29;20938;-68
2022/05/10 07:31:25;;;;;;;6.90;4.47;;;20.40;1.00;;;20.95;39.11;101554.97;4910319;29;20442;-68
2022/05/10 07:33:55;;;;;;;8.00;4.17;;;20.50;1.00;;;21.02;39.03;101555.59;4918373;29;20462;-69
2022/05/10 07:36:33;;;;;;;7.40;5.00;;;20.60;1.00;;;21.19;38.07;101545.41;4922614;29;20474;-68
2022/05/10 07:39:03;;;;;;;7.90;4.40;;;20.70;1.00;;;21.41;38.08;101547.28;4917723;29;20435;-69
2022/05/10 07:41:32;;;;;;;6.30;3.77;;;20.90;1.00;;;21.23;37.77;101552.06;4918040;29;20474;-69
2022/05/10 07:44:02;;;;;;;6.83;4.03;;;20.80;1.00;;;21.77;37.66;101546.59;4914325;29;20461;-69
2022/05/10 07:46:32;;;;;;;4.80;4.23;;;21.10;1.00;;;22.17;36.59;101539.81;4913788;29;20456;-69
2022/05/10 07:49:01;;;;;;;7.73;3.97;;;21.60;1.00;;;22.26;36.56;101539.06;4920945;29;20485;-69
2022/05/10 07:51:30;;;;;;;8.60;5.37;;;21.80;1.00;;;22.27;36.93;101539.88;4924139;29;20420;-68
2022/05/10 07:53:59;;;;;;;7.53;4.63;;;22.00;1.00;;;22.20;36.17;101534.59;4902641;29;20482;-68
2022/05/10 07:56:28;;;;;;;5.00;3.80;;;22.10;1.00;;;22.21;36.35;101527.97;4906249;29;20896;-69
2022/05/10 07:58:58;;;;;;;5.57;3.77;;;21.90;1.00;;;22.54;35.82;101524.91;4918050;29;20782;-68
2022/05/10 08:01:28;;;;;;;6.00;3.70;;;22.00;1.00;;;22.70;35.46;101531.38;4904060;29;20425;-69
2022/05/10 08:03:58;;;;;;;5.37;4.67;;;22.20;1.00;;;22.81;35.70;101524.78;4909672;29;20419;-67
2022/05/10 08:06:28;;;;;;;6.17;4.20;;;22.20;1.00;;;22.93;34.81;101522.66;4920897;29;20520;-66
2022/05/10 08:08:58;;;;;;;7.00;3.70;;;22.40;1.00;;;23.18;34.51;101521.09;4906605;29;20771;-68
2022/05/10 08:11:27;;;;;;;4.93;4.40;;;22.50;1.00;;;23.35;33.76;101522.53;4918374;29;20522;-68
2022/05/10 08:13:55;;;;;;;5.37;3.50;;;22.60;1.00;;;23.52;34.29;101508.53;4913042;29;20902;-68
2022/05/10 08:16:31;;;;;;;4.20;3.80;;;22.80;1.00;;;23.79;33.91;101508.25;4915814;29;20882;-68
2022/05/10 08:19:01;;;;;;;6.53;3.90;;;23.10;1.00;;;23.67;33.66;101503.00;4915142;29;20455;-67
2022/05/10 08:21:30;;;;;;;4.83;3.17;;;23.20;1.00;;;23.89;33.64;101507.44;4924815;29;20449;-69
2022/05/10 08:23:59;;;;;;;11.60;4.60;;;23.40;1.00;;;23.72;32.53;101497.47;4917571;29;20412;-68
2022/05/10 08:26:28;;;;;;;4.70;3.80;;;23.40;1.00;;;23.85;33.74;101503.56;4911635;29;20517;-68
2022/05/10 08:28:58;;;;;;;10.03;3.63;;;23.30;1.00;;;23.99;33.21;101507.44;4916670;29;20477;-69
2022/05/10 08:31:28;;;;;;;4.93;3.07;;;23.40;1.00;;;24.25;32.84;101501.63;4914915;29;20454;-68
2022/05/10 08:33:57;;;;;;;5.33;4.10;;;23.50;1.00;;;24.12;32.83;101506.88;4916314;29;20983;-68
2022/05/10 08:36:27;;;;;;;4.57;3.50;;;23.60;1.00;;;23.98;32.52;101489.19;4911676;29;20440;-68
2022/05/10 08:38:56;;;;;;;3.80;3.40;;;23.70;1.00;;;23.85;32.96;101496.13;4906734;29;20486;-69
2022/05/10 08:41:44;;;;;;;5.20;3.30;;;23.50;1.00;;;24.01;33.16;101488.66;4918900;29;20460;-68
2022/05/10 08:44:17;;;;;;;6.50;4.03;;;23.50;1.00;;;23.78;32.75;101488.09;4915584;29;20443;-68
2022/05/10 08:46:54;;;;;;;4.30;2.63;;;23.40;1.00;;;23.86;32.86;101491.41;4911542;29;20507;-68
2022/05/10 08:49:34;;;;;;;5.07;3.53;;;23.30;1.00;;;23.98;32.15;101484.50;4908046;29;20448;-68
2022/05/10 08:52:06;;;;;;;9.53;2.90;;;23.50;1.00;;;23.92;32.76;101484.75;4914402;29;20903;-68
2022/05/10 08:54:40;;;;;;;4.57;3.03;;;23.50;1.00;;;24.09;32.51;101488.09;4913033;29;20481;-68
2022/05/10 08:57:23;;;;;;;5.53;4.60;;;23.60;1.00;;;24.35;31.83;101489.72;4908003;29;20461;-69
2022/05/10 09:00:05;;;;;;;5.47;2.90;;;23.70;1.00;;;24.51;31.10;101483.06;4912113;29;20962;-69
2022/05/10 09:02:44;;;;;;;3.80;2.83;;;23.90;1.00;;;24.35;31.68;101478.66;4915035;29;20936;-67
2022/05/10 09:05:24;;;;;;;7.23;3.80;;;23.80;1.00;;;24.44;32.11;101474.25;4918168;29;20411;-68
2022/05/10 09:08:06;;;;;;;4.37;3.23;;;23.80;1.00;;;24.63;31.51;101475.28;4919961;29;20464;-69
2022/05/10 09:10:45;;;;;;;5.00;3.80;;;24.10;1.00;;;24.14;31.69;101468.72;4916164;29;20449;-68
2022/05/10 09:13:17;;;;;;;5.83;2.83;;;23.80;1.00;;;24.29;31.91;101462.38;4921433;29;20420;-68
2022/05/10 09:15:51;;;;;;;3.73;2.30;;;23.90;1.00;;;24.42;32.05;101459.03;4922700;29;20537;-68
2022/05/10 09:18:23;;;;;;;4.80;2.73;;;23.90;1.00;;;24.54;31.14;101462.31;4921010;29;20529;-68
2022/05/10 09:21:06;;;;;;;4.97;2.70;;;24.10;1.00;;;24.44;31.03;101463.19;4926763;29;20441;-69
2022/05/10 09:23:49;;;;;;;3.63;2.57;;;24.00;1.00;;;24.48;29.96;101458.72;4926407;29;20946;-66
2022/05/10 09:26:23;;;;;;;5.27;2.70;;;24.10;1.00;;;24.60;31.43;101452.88;4919015;29;20952;-69
2022/05/10 09:29:03;;;;;;;3.43;2.60;;;24.10;1.00;;;24.49;31.52;101451.25;4919141;29;20450;-68
2022/05/10 09:34:49;;;;;;;5.47;4.03;;;24.10;1.00;;;24.86;31.18;101450.84;4919383;29;20556;-68
2022/05/10 09:37:27;;;;;;;5.73;3.37;;;24.40;1.00;;;25.07;30.88;101446.88;4920394;29;20439;-69
2022/05/10 09:40:13;;;;;;;5.47;2.70;;;24.60;1.00;;;25.12;31.04;101449.63;4922781;29;20449;-69
2022/05/10 09:42:46;;;;;;;3.80;3.37;;;24.70;1.00;;;25.23;31.03;101434.59;4923334;29;20652;-68
2022/05/10 09:45:20;;;;;;;5.37;3.20;;;24.80;1.00;;;25.37;30.80;101438.38;4924106;29;20827;-69
2022/05/10 09:48:00;;;;;;;3.17;2.53;;;24.90;1.00;;;25.36;30.89;101433.13;4924365;29;20495;-69
2022/05/10 09:50:33;;;;;;;4.27;2.50;;;25.10;1.00;;;25.48;30.63;101430.81;4926194;29;20432;-68
2022/05/10 09:53:18;;;;;;;5.17;3.90;;;25.10;1.00;;;25.67;30.64;101422.66;4927006;29;20895;-68
2022/05/10 09:56:02;;;;;;;4.27;2.63;;;25.30;1.00;;;25.64;30.32;101417.69;4917313;29;20462;-67
2022/05/10 09:58:35;;;;;;;7.40;2.40;;;25.20;1.00;;;25.51;30.30;101417.19;4923589;29;20527;-68
2022/05/10 10:01:10;;;;;;;7.33;3.23;;;25.10;1.00;;;25.65;31.27;101419.38;4918974;29;20958;-69
2022/05/10 10:03:45;;;;;;;5.60;2.80;;;25.30;1.00;;;25.59;31.01;101417.75;4923003;29;20449;-69
2022/05/10 10:06:18;;;;;;;3.87;2.67;;;25.10;1.00;;;25.67;30.68;101414.34;4925085;29;20452;-68
2022/05/10 10:08:51;;;;;;;3.90;2.83;;;25.20;1.00;;;25.92;31.12;101408.56;4929727;29;20518;-69
2022/05/10 10:11:33;;;;;;;6.60;5.90;;;25.40;1.00;;;25.95;30.91;101407.97;4926276;29;20581;-69
2022/05/10 10:14:06;;;;;;;3.43;2.80;;;25.50;1.00;;;25.96;30.78;101398.53;4917507;29;20445;-69
2022/05/10 10:16:48;;;;;;;3.57;2.50;;;25.50;1.00;;;26.13;31.00;101398.09;4928444;29;20483;-69
2022/05/10 10:19:36;;;;;;;4.20;3.77;;;25.70;1.00;;;26.17;31.03;101402.75;4928184;29;20454;-68
2022/05/10 10:22:13;;;;;;;4.07;2.87;;;25.70;1.00;;;26.30;30.95;101390.97;4931949;29;20440;-69
2022/05/10 10:24:52;;;;;;;12.27;5.20;;;26.00;1.00;;;26.33;30.21;101393.19;4933294;29;20445;-69
2022/05/10 10:27:31;;;;;;;5.20;3.73;;;26.00;1.00;;;26.26;30.53;101384.38;4929722;29;20592;-67
2022/05/10 10:30:08;;;;;;;4.90;3.90;;;25.90;1.00;;;26.21;30.68;101376.13;4942404;29;20482;-68
2022/05/10 10:32:45;;;;;;;3.80;3.37;;;26.00;1.00;;;26.37;30.27;101374.81;4931589;29;20449;-67
2022/05/10 10:35:34;;;;;;;4.33;2.87;;;26.10;1.00;;;26.72;30.63;101375.50;4922050;29;20485;-67
2022/05/10 10:38:16;;;;;;;7.43;3.73;;;26.10;1.00;;;26.80;30.11;101367.31;4912280;29;20470;-68
2022/05/10 10:40:55;;;;;;;4.70;3.00;;;26.20;1.00;;;26.71;30.25;101365.50;4915454;29;20986;-68
2022/05/10 10:43:33;;;;;;;4.07;2.93;;;26.20;1.00;;;26.52;30.11;101359.94;4924014;29;20426;-69
2022/05/10 10:46:18;;;;;;;3.60;3.30;;;26.20;1.00;;;26.38;30.08;101359.81;4919259;29;20447;-68
2022/05/10 10:48:53;;;;;;;4.57;2.83;;;26.10;1.00;;;26.37;30.65;101355.41;4913273;29;20441;-69
2022/05/10 10:51:27;;;;;;;4.37;3.00;;;26.00;1.00;;;26.25;30.43;101351.38;4919188;29;20565;-67
2022/05/10 10:53:56;;;;;;;4.23;2.73;;;26.00;1.00;;;26.42;30.45;101340.63;4915220;29;20445;-69